sensor_id;sensor_type;location;lat;lon;timestamp;pressure;altitude;pressure_sealevel;temperature;humidity
22241;BME280;11289;52.524;13.694;2023-05-22T00:02:25;101178.38;;;20.16;44.48
22241;BME280;11289;52.524;13.694;2023-05-22T00:04:51;101178.69;;;20.11;45.04
22241;BME280;11289;52.524;13.694;2023-05-22T00:07:17;101183.53;;;20.10;44.73
22241;BME280;11289;52.524;13.694;2023-05-22T00:09:43;101180.25;;;20.08;44.47
22241;BME280;11289;52.524;13.694;2023-05-22T00:12:09;101172.06;;;19.96;44.45
22241;BME280;11289;52.524;13.694;2023-05-22T00:14:36;101183.06;;;20.05;44.93
22241;BME280;11289;52.524;13.694;2023-05-22T00:17:01;101181.03;;;20.05;45.17
22241;BME280;11289;52.524;13.694;2023-05-22T00:19:28;101168.50;;;20.03;45.34
22241;BME280;11289;52.524;13.694;2023-05-22T00:21:54;101169.72;;;20.02;44.77
22241;BME280;11289;52.524;13.694;2023-05-22T00:24:20;101170.44;;;19.95;44.73
22241;BME280;11289;52.524;13.694;2023-05-22T00:26:47;101166.75;;;19.91;44.86
22241;BME280;11289;52.524;13.694;2023-05-22T00:29:12;101150.91;;;19.79;44.84
22241;BME280;11289;52.524;13.694;2023-05-22T00:31:38;101148.91;;;19.79;44.94
22241;BME280;11289;52.524;13.694;2023-05-22T00:34:04;101157.78;;;19.81;45.33
22241;BME280;11289;52.524;13.694;2023-05-22T00:36:30;101149.63;;;19.76;45.33
22241;BME280;11289;52.524;13.694;2023-05-22T00:38:56;101149.59;;;19.73;45.01
22241;BME280;11289;52.524;13.694;2023-05-22T00:41:22;101151.53;;;19.69;45.09
22241;BME280;11289;52.524;13.694;2023-05-22T00:43:48;101166.13;;;19.78;45.57
22241;BME280;11289;52.524;13.694;2023-05-22T00:46:15;101164.09;;;19.75;45.94
22241;BME280;11289;52.524;13.694;2023-05-22T00:48:46;101168.13;;;19.74;45.62
22241;BME280;11289;52.524;13.694;2023-05-22T00:51:13;101162.00;;;19.68;45.70
22241;BME280;11289;52.524;13.694;2023-05-22T00:53:39;101165.63;;;19.69;45.78
22241;BME280;11289;52.524;13.694;2023-05-22T00:56:06;101152.63;;;19.60;45.59
22241;BME280;11289;52.524;13.694;2023-05-22T00:58:32;101154.97;;;19.55;46.34
22241;BME280;11289;52.524;13.694;2023-05-22T01:00:58;101138.59;;;19.37;45.97
22241;BME280;11289;52.524;13.694;2023-05-22T01:03:24;101148.25;;;19.36;46.31
22241;BME280;11289;52.524;13.694;2023-05-22T01:05:53;101140.59;;;19.37;46.55
22241;BME280;11289;52.524;13.694;2023-05-22T01:08:19;101132.00;;;19.26;46.62
22241;BME280;11289;52.524;13.694;2023-05-22T01:10:51;101133.19;;;19.25;47.24
22241;BME280;11289;52.524;13.694;2023-05-22T01:19:04;101162.03;;;19.18;47.43
22241;BME280;11289;52.524;13.694;2023-05-22T01:21:41;101155.84;;;19.09;47.35
22241;BME280;11289;52.524;13.694;2023-05-22T01:27:21;101150.53;;;19.04;47.38
22241;BME280;11289;52.524;13.694;2023-05-22T01:32:36;101141.84;;;18.89;47.21
22241;BME280;11289;52.524;13.694;2023-05-22T01:35:07;101133.63;;;18.80;47.58
22241;BME280;11289;52.524;13.694;2023-05-22T01:37:37;101132.69;;;18.73;47.34
22241;BME280;11289;52.524;13.694;2023-05-22T01:40:04;101134.75;;;18.76;47.69
22241;BME280;11289;52.524;13.694;2023-05-22T01:42:31;101145.63;;;18.77;47.62
22241;BME280;11289;52.524;13.694;2023-05-22T01:44:57;101139.06;;;18.70;47.65
22241;BME280;11289;52.524;13.694;2023-05-22T01:47:23;101124.81;;;18.59;47.34
22241;BME280;11289;52.524;13.694;2023-05-22T01:49:55;101149.88;;;18.68;47.68
22241;BME280;11289;52.524;13.694;2023-05-22T01:55:50;101148.13;;;18.59;47.78
22241;BME280;11289;52.524;13.694;2023-05-22T02:00:59;101138.66;;;18.48;47.90
22241;BME280;11289;52.524;13.694;2023-05-22T02:03:32;101146.97;;;18.41;47.66
22241;BME280;11289;52.524;13.694;2023-05-22T02:06:06;101149.78;;;18.41;48.25
22241;BME280;11289;52.524;13.694;2023-05-22T02:08:34;101149.63;;;18.34;48.07
22241;BME280;11289;52.524;13.694;2023-05-22T02:11:04;101148.84;;;18.33;48.06
22241;BME280;11289;52.524;13.694;2023-05-22T02:13:31;101154.69;;;18.24;47.96
22241;BME280;11289;52.524;13.694;2023-05-22T02:15:58;101151.78;;;18.21;48.39
22241;BME280;11289;52.524;13.694;2023-05-22T02:18:27;101145.22;;;18.13;48.30
22241;BME280;11289;52.524;13.694;2023-05-22T02:20:56;101108.53;;;17.86;48.62
22241;BME280;11289;52.524;13.694;2023-05-22T02:23:22;101123.00;;;17.88;48.32
22241;BME280;11289;52.524;13.694;2023-05-22T02:25:49;101140.03;;;17.96;48.82
22241;BME280;11289;52.524;13.694;2023-05-22T02:28:15;101133.53;;;17.91;48.49
22241;BME280;11289;52.524;13.694;2023-05-22T02:30:41;101130.00;;;17.79;48.54
22241;BME280;11289;52.524;13.694;2023-05-22T02:33:07;101132.00;;;17.78;48.82
22241;BME280;11289;52.524;13.694;2023-05-22T02:35:34;101130.09;;;17.82;49.05
22241;BME280;11289;52.524;13.694;2023-05-22T02:38:00;101136.63;;;17.86;49.04
22241;BME280;11289;52.524;13.694;2023-05-22T02:40:27;101137.78;;;17.85;48.67
22241;BME280;11289;52.524;13.694;2023-05-22T02:42:53;101132.81;;;17.79;48.89
22241;BME280;11289;52.524;13.694;2023-05-22T02:45:19;101109.16;;;17.60;49.20
22241;BME280;11289;52.524;13.694;2023-05-22T02:47:45;101137.25;;;17.80;49.01
22241;BME280;11289;52.524;13.694;2023-05-22T02:50:16;101139.91;;;17.72;49.11
22241;BME280;11289;52.524;13.694;2023-05-22T02:52:44;101120.03;;;17.62;49.39
22241;BME280;11289;52.524;13.694;2023-05-22T02:55:13;101120.41;;;17.60;49.36
22241;BME280;11289;52.524;13.694;2023-05-22T02:57:39;101125.66;;;17.62;49.11
22241;BME280;11289;52.524;13.694;2023-05-22T03:00:05;101119.94;;;17.58;49.44
22241;BME280;11289;52.524;13.694;2023-05-22T03:02:31;101134.50;;;17.64;49.45
22241;BME280;11289;52.524;13.694;2023-05-22T03:04:57;101128.72;;;17.56;49.39
22241;BME280;11289;52.524;13.694;2023-05-22T03:07:24;101134.34;;;17.56;49.55
22241;BME280;11289;52.524;13.694;2023-05-22T03:09:51;101124.66;;;17.54;49.48
22241;BME280;11289;52.524;13.694;2023-05-22T03:12:17;101107.94;;;17.42;49.66
22241;BME280;11289;52.524;13.694;2023-05-22T03:14:43;101128.56;;;17.49;49.73
22241;BME280;11289;52.524;13.694;2023-05-22T03:17:09;101093.22;;;17.29;49.60
22241;BME280;11289;52.524;13.694;2023-05-22T03:19:35;101116.44;;;17.45;49.93
22241;BME280;11289;52.524;13.694;2023-05-22T03:22:02;101116.91;;;17.47;49.99
22241;BME280;11289;52.524;13.694;2023-05-22T03:24:29;101124.84;;;17.45;49.82
22241;BME280;11289;52.524;13.694;2023-05-22T03:26:58;101110.66;;;17.38;49.98
22241;BME280;11289;52.524;13.694;2023-05-22T03:29:24;101121.16;;;17.41;50.28
22241;BME280;11289;52.524;13.694;2023-05-22T03:31:52;101112.66;;;17.37;50.29
22241;BME280;11289;52.524;13.694;2023-05-22T03:34:20;101095.50;;;17.23;50.35
22241;BME280;11289;52.524;13.694;2023-05-22T03:36:51;101111.38;;;17.35;50.81
22241;BME280;11289;52.524;13.694;2023-05-22T03:39:17;101103.28;;;17.30;50.47
22241;BME280;11289;52.524;13.694;2023-05-22T03:41:43;101109.59;;;17.27;50.59
22241;BME280;11289;52.524;13.694;2023-05-22T03:44:09;101112.38;;;17.27;50.75
22241;BME280;11289;52.524;13.694;2023-05-22T03:46:35;101110.63;;;17.18;50.75
22241;BME280;11289;52.524;13.694;2023-05-22T03:49:01;101114.94;;;17.16;51.05
22241;BME280;11289;52.524;13.694;2023-05-22T03:51:27;101119.03;;;17.18;51.15
22241;BME280;11289;52.524;13.694;2023-05-22T03:53:53;101118.56;;;17.16;51.40
22241;BME280;11289;52.524;13.694;2023-05-22T03:56:19;101119.66;;;17.12;51.60
22241;BME280;11289;52.524;13.694;2023-05-22T03:58:45;101117.03;;;17.03;51.86
22241;BME280;11289;52.524;13.694;2023-05-22T04:01:11;101117.94;;;17.07;52.42
22241;BME280;11289;52.524;13.694;2023-05-22T04:03:38;101113.88;;;17.04;52.47
22241;BME280;11289;52.524;13.694;2023-05-22T04:06:04;101110.63;;;17.02;52.49
22241;BME280;11289;52.524;13.694;2023-05-22T04:08:30;101111.00;;;17.01;52.27
22241;BME280;11289;52.524;13.694;2023-05-22T04:10:56;101105.75;;;16.99;52.34
22241;BME280;11289;52.524;13.694;2023-05-22T04:13:22;101107.47;;;17.04;52.52
22241;BME280;11289;52.524;13.694;2023-05-22T04:15:48;101098.41;;;16.95;52.24
22241;BME280;11289;52.524;13.694;2023-05-22T04:18:14;101107.72;;;16.99;52.64
22241;BME280;11289;52.524;13.694;2023-05-22T04:20:41;101110.09;;;16.97;53.12
22241;BME280;11289;52.524;13.694;2023-05-22T04:23:09;101107.28;;;16.97;52.66
22241;BME280;11289;52.524;13.694;2023-05-22T04:25:35;101116.50;;;16.97;52.94
22241;BME280;11289;52.524;13.694;2023-05-22T04:28:02;101116.50;;;16.97;53.45
22241;BME280;11289;52.524;13.694;2023-05-22T04:30:31;101113.63;;;16.94;53.05
22241;BME280;11289;52.524;13.694;2023-05-22T04:33:02;101120.22;;;17.01;52.75
22241;BME280;11289;52.524;13.694;2023-05-22T04:35:30;101117.88;;;17.03;52.72
22241;BME280;11289;52.524;13.694;2023-05-22T04:37:57;101115.41;;;17.02;52.99
22241;BME280;11289;52.524;13.694;2023-05-22T04:40:27;101115.50;;;17.05;52.84
22241;BME280;11289;52.524;13.694;2023-05-22T04:42:55;101116.50;;;17.13;53.30
22241;BME280;11289;52.524;13.694;2023-05-22T04:45:25;101114.69;;;17.21;52.94
22241;BME280;11289;52.524;13.694;2023-05-22T04:47:51;101115.13;;;17.23;52.92
22241;BME280;11289;52.524;13.694;2023-05-22T04:50:17;101114.50;;;17.30;52.91
22241;BME280;11289;52.524;13.694;2023-05-22T04:52:43;101108.16;;;17.33;52.46
22241;BME280;11289;52.524;13.694;2023-05-22T04:55:09;101111.84;;;17.37;52.35
22241;BME280;11289;52.524;13.694;2023-05-22T04:57:38;101113.19;;;17.43;52.20
22241;BME280;11289;52.524;13.694;2023-05-22T05:00:04;101117.16;;;17.42;52.15
22241;BME280;11289;52.524;13.694;2023-05-22T05:02:31;101109.91;;;17.41;52.32
22241;BME280;11289;52.524;13.694;2023-05-22T05:04:57;101113.56;;;17.42;52.35
22241;BME280;11289;52.524;13.694;2023-05-22T05:07:23;101118.81;;;17.43;52.39
22241;BME280;11289;52.524;13.694;2023-05-22T05:09:50;101114.81;;;17.44;53.18
22241;BME280;11289;52.524;13.694;2023-05-22T05:12:16;101108.00;;;17.45;52.59
22241;BME280;11289;52.524;13.694;2023-05-22T05:14:42;101117.50;;;17.56;52.75
22241;BME280;11289;52.524;13.694;2023-05-22T05:17:08;101110.88;;;17.65;52.63
22241;BME280;11289;52.524;13.694;2023-05-22T05:19:34;101110.94;;;17.68;52.36
22241;BME280;11289;52.524;13.694;2023-05-22T05:22:00;101108.88;;;17.65;52.65
22241;BME280;11289;52.524;13.694;2023-05-22T05:24:26;101113.09;;;17.75;52.49
22241;BME280;11289;52.524;13.694;2023-05-22T05:26:52;101108.81;;;17.81;52.16
22241;BME280;11289;52.524;13.694;2023-05-22T05:29:18;101115.88;;;17.91;51.76
22241;BME280;11289;52.524;13.694;2023-05-22T05:31:44;101121.69;;;18.02;51.81
22241;BME280;11289;52.524;13.694;2023-05-22T05:34:10;101114.00;;;17.99;51.60
22241;BME280;11289;52.524;13.694;2023-05-22T05:36:36;101119.03;;;18.09;51.58
22241;BME280;11289;52.524;13.694;2023-05-22T05:39:02;101122.38;;;18.15;51.58
22241;BME280;11289;52.524;13.694;2023-05-22T05:41:28;101109.25;;;18.22;51.80
22241;BME280;11289;52.524;13.694;2023-05-22T05:43:54;101115.91;;;18.34;51.76
22241;BME280;11289;52.524;13.694;2023-05-22T05:46:24;101129.06;;;18.49;51.77
22241;BME280;11289;52.524;13.694;2023-05-22T05:48:51;101126.81;;;18.58;51.42
22241;BME280;11289;52.524;13.694;2023-05-22T05:51:17;101131.81;;;18.69;51.34
22241;BME280;11289;52.524;13.694;2023-05-22T05:53:43;101129.88;;;18.73;50.14
22241;BME280;11289;52.524;13.694;2023-05-22T05:56:09;101131.44;;;18.70;50.55
22241;BME280;11289;52.524;13.694;2023-05-22T05:58:35;101131.50;;;18.74;50.56
22241;BME280;11289;52.524;13.694;2023-05-22T06:01:01;101125.78;;;18.90;51.21
22241;BME280;11289;52.524;13.694;2023-05-22T06:03:27;101122.13;;;19.12;50.94
22241;BME280;11289;52.524;13.694;2023-05-22T06:05:53;101122.44;;;19.30;50.32
22241;BME280;11289;52.524;13.694;2023-05-22T06:08:19;101122.69;;;19.48;49.71
22241;BME280;11289;52.524;13.694;2023-05-22T06:10:46;101122.59;;;19.72;49.28
22241;BME280;11289;52.524;13.694;2023-05-22T06:13:13;101131.44;;;19.97;48.52
22241;BME280;11289;52.524;13.694;2023-05-22T06:15:39;101132.13;;;20.24;48.61
22241;BME280;11289;52.524;13.694;2023-05-22T06:18:05;101115.16;;;20.55;47.54
22241;BME280;11289;52.524;13.694;2023-05-22T06:20:31;101120.97;;;20.69;47.33
22241;BME280;11289;52.524;13.694;2023-05-22T06:22:57;101111.31;;;20.70;46.77
22241;BME280;11289;52.524;13.694;2023-05-22T06:25:23;101123.06;;;20.76;46.72
22241;BME280;11289;52.524;13.694;2023-05-22T06:27:51;101118.72;;;20.89;46.69
22241;BME280;11289;52.524;13.694;2023-05-22T06:30:17;101111.13;;;20.93;46.16
22241;BME280;11289;52.524;13.694;2023-05-22T06:32:43;101111.22;;;21.08;46.38
22241;BME280;11289;52.524;13.694;2023-05-22T06:35:09;101114.06;;;21.08;46.27
22241;BME280;11289;52.524;13.694;2023-05-22T06:37:35;101106.44;;;21.12;45.88
22241;BME280;11289;52.524;13.694;2023-05-22T06:40:02;101118.16;;;21.17;45.46
22241;BME280;11289;52.524;13.694;2023-05-22T06:42:28;101118.19;;;21.21;45.68
22241;BME280;11289;52.524;13.694;2023-05-22T06:44:54;101112.94;;;21.19;45.55
22241;BME280;11289;52.524;13.694;2023-05-22T06:47:20;101120.66;;;21.26;45.83
22241;BME280;11289;52.524;13.694;2023-05-22T06:49:46;101109.41;;;21.33;45.54
22241;BME280;11289;52.524;13.694;2023-05-22T06:52:12;101115.13;;;21.48;45.61
22241;BME280;11289;52.524;13.694;2023-05-22T06:54:38;101111.09;;;21.49;45.54
22241;BME280;11289;52.524;13.694;2023-05-22T06:57:08;101112.78;;;21.57;45.73
22241;BME280;11289;52.524;13.694;2023-05-22T06:59:34;101107.59;;;21.63;45.28
22241;BME280;11289;52.524;13.694;2023-05-22T07:02:00;101111.28;;;21.78;45.00
22241;BME280;11289;52.524;13.694;2023-05-22T07:06:52;101120.72;;;22.14;44.77
22241;BME280;11289;52.524;13.694;2023-05-22T07:09:18;101113.88;;;22.26;44.36
22241;BME280;11289;52.524;13.694;2023-05-22T07:11:45;101118.81;;;22.43;44.06
22241;BME280;11289;52.524;13.694;2023-05-22T07:14:11;101107.53;;;22.65;43.87
22241;BME280;11289;52.524;13.694;2023-05-22T07:16:38;101109.56;;;22.83;43.94
22241;BME280;11289;52.524;13.694;2023-05-22T07:19:05;101112.41;;;23.01;43.26
22241;BME280;11289;52.524;13.694;2023-05-22T07:21:33;101107.97;;;23.21;42.92
22241;BME280;11289;52.524;13.694;2023-05-22T07:24:01;101104.28;;;23.42;41.82
22241;BME280;11289;52.524;13.694;2023-05-22T07:26:36;101108.31;;;23.56;41.58
22241;BME280;11289;52.524;13.694;2023-05-22T07:29:03;101110.66;;;23.79;42.44
22241;BME280;11289;52.524;13.694;2023-05-22T07:31:29;101105.31;;;24.06;41.62
22241;BME280;11289;52.524;13.694;2023-05-22T07:33:56;101108.41;;;24.37;41.48
22241;BME280;11289;52.524;13.694;2023-05-22T07:36:22;101112.78;;;24.45;40.92
22241;BME280;11289;52.524;13.694;2023-05-22T07:38:48;101108.25;;;24.66;40.54
22241;BME280;11289;52.524;13.694;2023-05-22T07:41:14;101102.09;;;24.71;40.61
22241;BME280;11289;52.524;13.694;2023-05-22T07:43:40;101105.72;;;24.75;40.14
22241;BME280;11289;52.524;13.694;2023-05-22T07:46:06;101103.41;;;24.59;39.90
22241;BME280;11289;52.524;13.694;2023-05-22T07:48:34;101107.47;;;24.55;40.29
22241;BME280;11289;52.524;13.694;2023-05-22T07:51:00;101102.72;;;24.37;40.22
22241;BME280;11289;52.524;13.694;2023-05-22T07:53:28;101101.94;;;24.33;40.87
22241;BME280;11289;52.524;13.694;2023-05-22T07:55:54;101108.78;;;24.43;40.26
22241;BME280;11289;52.524;13.694;2023-05-22T07:58:20;101100.56;;;24.56;40.91
22241;BME280;11289;52.524;13.694;2023-05-22T08:00:49;101096.63;;;24.95;40.76
22241;BME280;11289;52.524;13.694;2023-05-22T08:03:15;101089.97;;;25.12;39.86
22241;BME280;11289;52.524;13.694;2023-05-22T08:05:41;101095.91;;;25.32;39.74
22241;BME280;11289;52.524;13.694;2023-05-22T08:08:07;101094.47;;;25.51;38.96
22241;BME280;11289;52.524;13.694;2023-05-22T08:10:35;101093.38;;;25.76;38.26
22241;BME280;11289;52.524;13.694;2023-05-22T08:13:01;101094.75;;;25.95;38.09
22241;BME280;11289;52.524;13.694;2023-05-22T08:15:31;101086.78;;;26.17;37.59
22241;BME280;11289;52.524;13.694;2023-05-22T08:17:57;101090.13;;;26.39;37.72
22241;BME280;11289;52.524;13.694;2023-05-22T08:20:23;101091.13;;;26.53;37.36
22241;BME280;11289;52.524;13.694;2023-05-22T08:22:49;101091.34;;;26.66;36.61
22241;BME280;11289;52.524;13.694;2023-05-22T08:25:15;101093.13;;;26.83;36.88
22241;BME280;11289;52.524;13.694;2023-05-22T08:27:41;101091.25;;;26.73;36.75
22241;BME280;11289;52.524;13.694;2023-05-22T08:30:07;101093.13;;;26.83;36.20
22241;BME280;11289;52.524;13.694;2023-05-22T08:32:34;101085.97;;;26.99;35.87
22241;BME280;11289;52.524;13.694;2023-05-22T08:35:00;101087.19;;;26.98;35.05
22241;BME280;11289;52.524;13.694;2023-05-22T08:37:26;101087.38;;;26.87;35.36
22241;BME280;11289;52.524;13.694;2023-05-22T08:39:52;101089.34;;;27.14;35.04
22241;BME280;11289;52.524;13.694;2023-05-22T08:42:18;101077.75;;;27.24;34.49
22241;BME280;11289;52.524;13.694;2023-05-22T08:44:44;101082.06;;;27.33;35.00
22241;BME280;11289;52.524;13.694;2023-05-22T08:47:10;101071.63;;;27.70;34.73
22241;BME280;11289;52.524;13.694;2023-05-22T08:49:39;101072.28;;;27.98;34.83
22241;BME280;11289;52.524;13.694;2023-05-22T08:52:12;101070.78;;;27.89;34.15
22241;BME280;11289;52.524;13.694;2023-05-22T08:54:41;101073.63;;;27.69;33.77
22241;BME280;11289;52.524;13.694;2023-05-22T08:57:10;101067.56;;;27.47;33.42
22241;BME280;11289;52.524;13.694;2023-05-22T08:59:38;101067.28;;;27.61;34.49
22241;BME280;11289;52.524;13.694;2023-05-22T09:02:05;101060.34;;;27.62;33.80
22241;BME280;11289;52.524;13.694;2023-05-22T09:04:31;101056.97;;;27.88;34.08
22241;BME280;11289;52.524;13.694;2023-05-22T09:06:57;101058.47;;;28.12;33.18
22241;BME280;11289;52.524;13.694;2023-05-22T09:09:30;101055.75;;;28.25;31.69
22241;BME280;11289;52.524;13.694;2023-05-22T09:11:57;101055.19;;;28.30;32.27
22241;BME280;11289;52.524;13.694;2023-05-22T09:14:23;101041.59;;;28.38;31.94
22241;BME280;11289;52.524;13.694;2023-05-22T09:16:51;101045.84;;;28.46;32.41
22241;BME280;11289;52.524;13.694;2023-05-22T09:19:17;101042.41;;;28.72;31.91
22241;BME280;11289;52.524;13.694;2023-05-22T09:21:43;101041.84;;;28.93;31.73
22241;BME280;11289;52.524;13.694;2023-05-22T09:24:10;101035.59;;;28.98;31.63
22241;BME280;11289;52.524;13.694;2023-05-22T09:26:39;101041.97;;;28.73;31.10
22241;BME280;11289;52.524;13.694;2023-05-22T09:29:05;101035.78;;;28.58;31.58
22241;BME280;11289;52.524;13.694;2023-05-22T09:31:39;101028.66;;;28.50;31.46
22241;BME280;11289;52.524;13.694;2023-05-22T09:34:06;101037.91;;;28.38;31.78
22241;BME280;11289;52.524;13.694;2023-05-22T09:36:34;101041.03;;;28.43;31.26
22241;BME280;11289;52.524;13.694;2023-05-22T09:39:02;101027.94;;;28.46;31.08
22241;BME280;11289;52.524;13.694;2023-05-22T09:41:33;101030.34;;;28.47;31.33
22241;BME280;11289;52.524;13.694;2023-05-22T09:43:59;101029.00;;;28.52;31.65
22241;BME280;11289;52.524;13.694;2023-05-22T09:46:26;101033.25;;;28.64;30.91
22241;BME280;11289;52.524;13.694;2023-05-22T09:48:52;101038.84;;;28.68;30.81
22241;BME280;11289;52.524;13.694;2023-05-22T09:51:21;101038.13;;;28.63;30.28
22241;BME280;11289;52.524;13.694;2023-05-22T09:53:50;101024.72;;;28.77;30.35
22241;BME280;11289;52.524;13.694;2023-05-22T09:56:19;101028.41;;;28.77;30.30
22241;BME280;11289;52.524;13.694;2023-05-22T09:58:49;101029.22;;;28.61;30.42
22241;BME280;11289;52.524;13.694;2023-05-22T10:01:18;101023.72;;;28.51;30.63
22241;BME280;11289;52.524;13.694;2023-05-22T10:03:46;101021.16;;;28.40;30.91
22241;BME280;11289;52.524;13.694;2023-05-22T10:06:13;101024.91;;;28.37;30.73
22241;BME280;11289;52.524;13.694;2023-05-22T10:08:43;101023.72;;;28.34;31.16
22241;BME280;11289;52.524;13.694;2023-05-22T10:11:11;101017.56;;;28.19;31.11
22241;BME280;11289;52.524;13.694;2023-05-22T10:13:38;101013.16;;;27.78;31.79
22241;BME280;11289;52.524;13.694;2023-05-22T10:16:06;101021.78;;;27.94;31.39
22241;BME280;11289;52.524;13.694;2023-05-22T10:18:32;101012.59;;;28.23;31.61
22241;BME280;11289;52.524;13.694;2023-05-22T10:21:00;101007.97;;;28.62;30.66
22241;BME280;11289;52.524;13.694;2023-05-22T10:23:27;100994.88;;;28.94;30.47
22241;BME280;11289;52.524;13.694;2023-05-22T10:25:54;100994.47;;;28.96;29.87
22241;BME280;11289;52.524;13.694;2023-05-22T10:28:34;101007.16;;;29.24;30.02
22241;BME280;11289;52.524;13.694;2023-05-22T10:33:48;100990.78;;;28.95;28.83
22241;BME280;11289;52.524;13.694;2023-05-22T10:36:30;100993.28;;;28.93;29.44
22241;BME280;11289;52.524;13.694;2023-05-22T10:41:55;100980.25;;;28.92;29.38
22241;BME280;11289;52.524;13.694;2023-05-22T10:44:21;100983.31;;;28.85;29.20
22241;BME280;11289;52.524;13.694;2023-05-22T10:46:48;100982.41;;;28.88;28.50
22241;BME280;11289;52.524;13.694;2023-05-22T10:49:21;100977.91;;;29.04;28.75
22241;BME280;11289;52.524;13.694;2023-05-22T10:51:56;100976.00;;;29.13;29.11
22241;BME280;11289;52.524;13.694;2023-05-22T10:54:42;100981.47;;;29.08;28.07
22241;BME280;11289;52.524;13.694;2023-05-22T10:57:16;100989.53;;;28.96;27.93
22241;BME280;11289;52.524;13.694;2023-05-22T10:59:46;100969.13;;;29.11;28.34
22241;BME280;11289;52.524;13.694;2023-05-22T11:02:19;100968.63;;;28.99;27.96
22241;BME280;11289;52.524;13.694;2023-05-22T11:04:46;100963.88;;;29.09;28.30
22241;BME280;11289;52.524;13.694;2023-05-22T11:07:12;100974.47;;;29.09;27.70
22241;BME280;11289;52.524;13.694;2023-05-22T11:09:43;100964.91;;;29.15;27.29
22241;BME280;11289;52.524;13.694;2023-05-22T11:14:58;100957.94;;;29.16;27.30
22241;BME280;11289;52.524;13.694;2023-05-22T11:20:03;100958.97;;;29.52;26.87
22241;BME280;11289;52.524;13.694;2023-05-22T11:22:35;100952.91;;;29.50;26.47
22241;BME280;11289;52.524;13.694;2023-05-22T11:25:05;100953.91;;;29.43;26.12
22241;BME280;11289;52.524;13.694;2023-05-22T11:27:32;100966.81;;;29.35;25.72
22241;BME280;11289;52.524;13.694;2023-05-22T11:29:58;100960.50;;;29.27;26.91
22241;BME280;11289;52.524;13.694;2023-05-22T11:32:24;100950.63;;;29.58;26.97
22241;BME280;11289;52.524;13.694;2023-05-22T11:34:51;100954.53;;;29.77;26.39
22241;BME280;11289;52.524;13.694;2023-05-22T11:37:17;100957.19;;;29.84;26.36
22241;BME280;11289;52.524;13.694;2023-05-22T11:39:57;100956.88;;;29.95;25.46
22241;BME280;11289;52.524;13.694;2023-05-22T11:42:23;100941.97;;;29.87;26.04
22241;BME280;11289;52.524;13.694;2023-05-22T11:44:49;100946.78;;;30.03;26.22
22241;BME280;11289;52.524;13.694;2023-05-22T11:47:15;100940.91;;;30.32;25.87
22241;BME280;11289;52.524;13.694;2023-05-22T11:49:42;100943.19;;;30.37;25.29
22241;BME280;11289;52.524;13.694;2023-05-22T11:52:11;100946.31;;;30.43;25.07
22241;BME280;11289;52.524;13.694;2023-05-22T11:54:37;100933.25;;;30.42;24.35
22241;BME280;11289;52.524;13.694;2023-05-22T11:57:06;100938.03;;;30.32;24.61
22241;BME280;11289;52.524;13.694;2023-05-22T11:59:32;100925.53;;;30.52;25.00
22241;BME280;11289;52.524;13.694;2023-05-22T12:01:58;100928.78;;;30.28;23.91
22241;BME280;11289;52.524;13.694;2023-05-22T12:04:25;100917.34;;;30.28;25.00
22241;BME280;11289;52.524;13.694;2023-05-22T12:06:52;100924.75;;;30.51;24.77
22241;BME280;11289;52.524;13.694;2023-05-22T12:09:18;100926.00;;;30.50;24.80
22241;BME280;11289;52.524;13.694;2023-05-22T12:11:47;100928.16;;;30.59;24.06
22241;BME280;11289;52.524;13.694;2023-05-22T12:14:14;100923.72;;;30.80;23.81
22241;BME280;11289;52.524;13.694;2023-05-22T12:16:40;100907.91;;;30.76;23.41
22241;BME280;11289;52.524;13.694;2023-05-22T12:19:07;100924.25;;;30.66;23.22
22241;BME280;11289;52.524;13.694;2023-05-22T12:21:33;100923.00;;;30.54;23.43
22241;BME280;11289;52.524;13.694;2023-05-22T12:24:04;100913.84;;;30.59;23.77
22241;BME280;11289;52.524;13.694;2023-05-22T12:26:31;100911.28;;;30.61;22.74
22241;BME280;11289;52.524;13.694;2023-05-22T12:28:57;100912.13;;;30.62;23.63
22241;BME280;11289;52.524;13.694;2023-05-22T12:31:24;100902.13;;;30.88;23.00
22241;BME280;11289;52.524;13.694;2023-05-22T12:33:56;100907.59;;;30.96;22.40
22241;BME280;11289;52.524;13.694;2023-05-22T12:36:37;100908.53;;;30.93;23.11
22241;BME280;11289;52.524;13.694;2023-05-22T12:39:14;100895.00;;;30.71;22.10
22241;BME280;11289;52.524;13.694;2023-05-22T12:41:41;100899.09;;;30.48;22.97
22241;BME280;11289;52.524;13.694;2023-05-22T12:44:07;100896.66;;;30.59;23.71
22241;BME280;11289;52.524;13.694;2023-05-22T12:46:33;100902.41;;;30.33;21.78
22241;BME280;11289;52.524;13.694;2023-05-22T12:49:00;100903.09;;;30.37;23.16
22241;BME280;11289;52.524;13.694;2023-05-22T12:51:28;100904.50;;;30.46;22.89
22241;BME280;11289;52.524;13.694;2023-05-22T12:53:55;100917.06;;;30.48;22.76
22241;BME280;11289;52.524;13.694;2023-05-22T12:56:21;100908.28;;;30.43;22.07
22241;BME280;11289;52.524;13.694;2023-05-22T12:58:47;100908.19;;;30.68;22.33
22241;BME280;11289;52.524;13.694;2023-05-22T13:01:13;100893.47;;;30.79;22.00
22241;BME280;11289;52.524;13.694;2023-05-22T13:03:40;100901.72;;;30.77;22.90
22241;BME280;11289;52.524;13.694;2023-05-22T13:06:06;100893.28;;;30.96;22.40
22241;BME280;11289;52.524;13.694;2023-05-22T13:08:32;100892.50;;;31.17;21.80
22241;BME280;11289;52.524;13.694;2023-05-22T13:10:58;100883.22;;;30.91;22.22
22241;BME280;11289;52.524;13.694;2023-05-22T13:13:24;100879.69;;;31.09;22.27